Ann Arbor, MI (48109)

10:02 PM EDT on August 02, 2015 (GMT -0400)
Leslie Park Golf Course | | Change Station
CLOSE
Current Station
Personal Weather Station
Location: Ann Arbor, MI
Elevation: 906 ft
Nearby Weather Stations

Elev 906 ft 42.31 °N, 83.72 °W | Updated 56 seconds ago

Partly Cloudy
Partly Cloudy
82.0 °F
Feels Like 85 °F
N
6.0
Wind Variable Wind from SW
Gusts 10.0 mph

Today
High -- | Low -- °F
--% Chance of Precip.
Yesterday
High -- | Low -- °F
Precip. -- in
6:28 AM 8:53 PM
Waning Gibbous, 90% visible
Pressure 29.66 in
Visibility 10.0 miles
Clouds Clear
Heat Index 85 °F
Dew Point 68 °F
Humidity 63%
Rainfall 0.00 in
Snow Depth Not available.
UV 0 out of 12
Pollen 5.00 out of 12
Air Quality Not available.
Flu Activity Not available.
METAR KARB 030153Z AUTO 22013G18KT 10SM CLR 28/18 A2968 RMK AO2 SLP042 T02780178

More Conditions Fewer Conditions

Pressure 29.66 in
Visibility 10.0 miles
Clouds Clear
Heat Index 85 °F
Dew Point 68 °F
Humidity 63%
Rainfall 0.00 in
Snow Depth Not available.
UV 0 out of 12
Pollen 5.00 out of 12
Air Quality Not available.
Flu Activity Not available.
METAR KARB 030153Z AUTO 22013G18KT 10SM CLR 28/18 A2968 RMK AO2 SLP042 T02780178

More Conditions Fewer Conditions

10-Day Weather Forecast

×

Almanac

Astronomy

Aug. 02, 2015 Rise Set
Actual Time
Civil Twilight
Nautical Twilight
Astronomical Twilight
Moon
Length of Visible Light
Length of Day
Tomorrow will be .
, % of the Moon is Illuminated

Today's Extremes

State Highs State Lows

Community

WunderPhotos

Upload Photos

1,843,516 photos uploaded!

WunderBlogs® & News

Nearby

Air Quality

  Air Quality AQ Index Pollutant
Not available.

Snow Depth

Station Depth Elevation

Earthquake Activity

City Distance Mag. Time & Date
Minimum magnitude displayed is 2.5.

Coastal Water Temperatures

Place Temperature

Stations

Nearby Weather Stations

Station Location Temp. Windchill Dew Point Humidity Wind Precip. Elev Updated Type
                   
Severe Thunderstorm Watch
Statement as of 9:40 PM EDT on August 02, 2015

Severe Thunderstorm Watch 463 remains in effect until 200 am EDT
for the following locations


Mi
. Michigan counties included are

Allegan Barry Calhoun
Clinton Eaton Genesee
Ingham Ionia Jackson
Kalamazoo Kent Lapeer
Lenawee Livingston Macomb
Monroe Oakland Ottawa
Saginaw St. Clair Sanilac
Shiawassee Tuscola Van Buren
Washtenaw Wayne